createdAt,value
2023-05-08T00:00:14.312Z,12.0444
2023-05-08T00:01:14.339Z,12.0134
2023-05-08T00:02:14.974Z,12.0302
2023-05-08T00:03:15.472Z,11.9981
2023-05-08T00:04:16.506Z,12.0257
2023-05-08T00:06:17.484Z,12.0313
2023-05-08T00:07:18.249Z,12.0553
2023-05-08T00:08:19.736Z,12.0641
2023-05-08T00:09:20.251Z,12.0080
2023-05-08T00:10:20.982Z,11.9921
2023-05-08T00:11:22.212Z,12.0279
2023-05-08T00:16:05.150Z,12.0149
2023-05-08T00:17:05.309Z,12.0345
2023-05-08T00:18:06.824Z,12.0221
2023-05-08T00:19:07.911Z,12.0350
2023-05-08T00:20:09.036Z,12.0049
2023-05-08T00:21:09.164Z,12.0048
2023-05-08T00:22:09.886Z,11.9894
2023-05-08T00:23:10.998Z,11.9746
2023-05-08T00:24:12.323Z,11.9691
2023-05-08T00:25:12.578Z,11.9610
2023-05-08T00:26:13.711Z,11.9542
2023-05-08T00:27:14.239Z,11.9372
2023-05-08T00:28:15.135Z,11.9388
2023-05-08T00:29:15.195Z,11.9432
2023-05-08T00:30:16.907Z,11.9774
2023-05-08T00:31:16.634Z,12.0095
2023-05-08T00:32:16.965Z,12.0135
2023-05-08T00:33:18.909Z,11.9844
2023-05-08T00:36:43.723Z,11.9632
2023-05-08T00:37:43.811Z,11.9455
2023-05-08T00:38:44.649Z,11.9522
2023-05-08T00:39:45.484Z,11.9687
2023-05-08T00:40:46.168Z,11.9661
2023-05-08T00:41:47.112Z,11.9493
2023-05-08T00:42:48.228Z,11.9358
2023-05-08T00:43:49.022Z,11.9221
2023-05-08T00:44:50.799Z,11.9431
2023-05-08T00:45:51.731Z,11.9272
2023-05-08T00:46:52.708Z,11.9349
2023-05-08T00:47:53.710Z,11.9261
2023-05-08T00:48:54.390Z,11.9106
2023-05-08T00:49:56.387Z,11.9200
2023-05-08T00:51:01.915Z,11.9237
2023-05-08T00:51:59.208Z,11.9438
2023-05-08T00:53:00.021Z,11.9244
2023-05-08T00:54:01.225Z,11.9279
2023-05-08T00:55:02.414Z,11.9341
2023-05-08T00:56:03.751Z,11.9113
2023-05-08T00:57:05.133Z,11.9129
2023-05-08T00:58:06.000Z,11.9021
2023-05-08T00:59:07.289Z,11.8978
2023-05-08T01:00:08.222Z,11.8978
2023-05-08T01:01:09.574Z,11.8884
2023-05-08T01:02:11.344Z,11.8820
2023-05-08T01:04:12.747Z,11.9084
2023-05-08T01:05:12.998Z,11.9238
2023-05-08T01:08:03.853Z,11.9066
2023-05-08T01:09:04.477Z,11.9596
2023-05-08T01:10:04.561Z,11.9790
2023-05-08T01:11:06.145Z,11.9601
2023-05-08T01:12:06.110Z,11.9892
2023-05-08T01:13:06.213Z,11.9938
2023-05-08T01:14:06.814Z,11.9882
2023-05-08T01:15:08.435Z,12.0014
2023-05-08T01:16:09.473Z,11.9780
2023-05-08T01:17:09.826Z,11.9679
2023-05-08T01:18:09.847Z,11.9767
2023-05-08T01:19:10.870Z,11.9771
2023-05-08T01:20:12.159Z,11.9763
2023-05-08T01:21:12.213Z,11.9726
2023-05-08T01:22:12.641Z,11.9704
2023-05-08T01:23:14.132Z,11.9561
2023-05-08T01:24:15.012Z,11.9621
2023-05-08T01:25:16.011Z,11.9650
2023-05-08T01:26:16.391Z,11.9540
2023-05-08T01:27:17.393Z,11.9313
2023-05-08T01:28:17.515Z,11.9342
2023-05-08T01:29:18.989Z,11.9271
2023-05-08T01:30:19.133Z,11.9252
2023-05-08T01:32:19.057Z,11.9048
2023-05-08T01:33:20.486Z,11.8945
2023-05-08T01:36:21.619Z,11.8713
2023-05-08T01:37:22.282Z,11.8709
2023-05-08T01:38:22.631Z,11.8960
2023-05-08T01:39:23.549Z,11.9144
2023-05-08T01:40:24.098Z,11.9246
2023-05-08T01:41:25.608Z,11.8669
2023-05-08T01:42:26.365Z,11.8519
2023-05-08T01:43:27.434Z,11.8433
2023-05-08T01:44:28.507Z,11.8417
2023-05-08T01:45:29.588Z,11.8573
2023-05-08T01:46:30.702Z,11.8525
2023-05-08T01:51:02.068Z,11.8172
2023-05-08T01:52:02.103Z,11.8128
2023-05-08T01:53:03.190Z,11.8069
2023-05-08T01:55:04.653Z,11.8082
2023-05-08T01:56:04.738Z,11.8287
2023-05-08T01:57:06.068Z,11.8524
2023-05-08T01:58:06.789Z,11.8440
2023-05-08T01:59:06.793Z,11.8742
2023-05-08T02:00:07.974Z,11.8795
2023-05-08T02:02:08.391Z,11.8757
2023-05-08T02:03:08.762Z,11.8587
2023-05-08T02:04:10.331Z,11.8603
2023-05-08T02:06:10.886Z,11.8520
2023-05-08T02:07:11.370Z,11.8607
2023-05-08T02:08:12.668Z,11.8610
2023-05-08T02:09:13.177Z,11.8672
2023-05-08T02:10:14.362Z,11.8690
2023-05-08T02:12:14.492Z,11.8579
2023-05-08T02:13:16.308Z,11.8487
2023-05-08T02:14:16.963Z,11.8515
2023-05-08T02:15:18.312Z,11.8510
2023-05-08T02:16:19.426Z,11.8455
2023-05-08T02:25:29.223Z,11.9725
2023-05-08T02:26:29.866Z,12.0052
2023-05-08T02:27:30.369Z,11.9967
2023-05-08T02:28:31.273Z,11.9965
2023-05-08T02:29:32.291Z,11.9987
2023-05-08T02:30:32.579Z,12.0040
2023-05-08T02:31:33.690Z,11.9933
2023-05-08T02:32:34.477Z,11.9840
2023-05-08T02:33:35.140Z,11.9791
2023-05-08T02:34:35.223Z,11.9810
2023-05-08T02:35:35.171Z,11.9815
2023-05-08T02:36:35.228Z,11.9724
2023-05-08T02:37:36.139Z,11.9637
2023-05-08T02:38:38.683Z,11.9581
2023-05-08T02:39:38.625Z,11.9711
2023-05-08T02:40:39.842Z,11.9953
2023-05-08T02:41:40.094Z,11.9782
2023-05-08T02:42:41.294Z,11.9703
2023-05-08T02:43:43.443Z,11.9694
2023-05-08T02:44:43.616Z,11.9662
2023-05-08T02:45:44.005Z,11.9614
2023-05-08T02:46:45.254Z,11.9896
2023-05-08T02:47:44.869Z,11.9827
2023-05-08T02:48:45.407Z,11.9678
2023-05-08T02:49:46.257Z,11.9673
2023-05-08T02:50:47.894Z,11.9781
2023-05-08T02:51:48.649Z,12.0099
2023-05-08T02:52:48.295Z,12.0256
2023-05-08T02:53:49.569Z,12.0115
2023-05-08T02:54:49.846Z,12.0072
2023-05-08T02:55:50.090Z,12.0035
2023-05-08T02:56:50.359Z,12.0062
2023-05-08T02:57:51.005Z,11.9920
2023-05-08T02:58:51.917Z,11.9833
2023-05-08T02:59:52.680Z,11.9858
2023-05-08T03:00:52.719Z,12.0075
2023-05-08T03:01:53.836Z,12.0543
2023-05-08T03:02:53.971Z,12.0638
2023-05-08T03:03:55.054Z,12.0349
2023-05-08T03:04:55.984Z,12.0400
2023-05-08T03:05:56.737Z,12.0337
2023-05-08T03:06:57.400Z,12.0354
2023-05-08T03:07:57.951Z,12.0169
2023-05-08T03:08:58.009Z,12.0092
2023-05-08T03:09:58.931Z,12.0059
2023-05-08T03:10:59.358Z,12.0111
2023-05-08T03:11:59.574Z,12.0057
2023-05-08T03:13:00.292Z,12.0214
2023-05-08T03:14:01.274Z,12.0232
2023-05-08T03:19:04.661Z,12.0423
2023-05-08T03:20:04.836Z,11.9985
2023-05-08T03:21:04.894Z,11.9913
2023-05-08T03:22:06.008Z,11.9853
2023-05-08T03:23:07.490Z,11.9760
2023-05-08T03:24:07.849Z,11.9920
2023-05-08T03:25:08.272Z,11.9955
2023-05-08T03:26:09.768Z,12.0017
2023-05-08T03:29:10.790Z,12.0242
2023-05-08T03:33:12.765Z,12.0905
2023-05-08T03:34:13.530Z,12.1058
2023-05-08T03:35:14.715Z,12.1045
2023-05-08T03:36:15.597Z,12.1010
2023-05-08T03:37:16.104Z,12.0994
2023-05-08T03:38:17.433Z,12.1070
2023-05-08T03:39:17.857Z,12.0994
2023-05-08T03:40:17.910Z,12.0824
2023-05-08T03:41:19.118Z,12.0826
2023-05-08T03:42:20.254Z,12.0790
2023-05-08T03:43:21.019Z,12.0842
2023-05-08T03:44:21.035Z,12.0935
2023-05-08T03:45:22.100Z,12.0836
2023-05-08T03:46:23.567Z,12.0912
2023-05-08T03:47:23.780Z,12.1000
2023-05-08T03:48:24.123Z,12.0905
2023-05-08T03:49:25.990Z,12.0942
2023-05-08T03:50:26.811Z,12.1003
2023-05-08T03:51:29.414Z,12.1078
2023-05-08T03:54:30.712Z,12.1515
2023-05-08T03:55:31.942Z,12.1586
2023-05-08T03:56:32.671Z,12.1493
2023-05-08T03:57:32.745Z,12.1468
2023-05-08T03:58:33.623Z,12.1650
2023-05-08T03:59:33.761Z,12.1457
2023-05-08T04:00:34.570Z,12.1480
2023-05-08T04:01:35.725Z,12.1682
2023-05-08T04:02:36.708Z,12.1646
2023-05-08T04:03:36.789Z,12.1585
2023-05-08T04:04:38.076Z,12.1685
2023-05-08T04:05:38.279Z,12.1724
2023-05-08T04:06:49.356Z,12.1756
2023-05-08T04:07:43.330Z,12.1597
2023-05-08T04:09:43.083Z,12.1695
2023-05-08T04:10:44.664Z,12.1626
2023-05-08T04:12:44.413Z,12.1412
2023-05-08T04:13:45.905Z,12.1365
2023-05-08T04:14:47.007Z,12.1104
2023-05-08T04:15:48.049Z,12.1066
2023-05-08T04:16:50.156Z,12.1176
2023-05-08T04:17:50.199Z,12.1350
2023-05-08T04:18:50.564Z,12.1231
2023-05-08T04:19:51.257Z,12.1133
2023-05-08T04:21:51.643Z,12.1066
2023-05-08T04:23:52.581Z,12.1038
2023-05-08T04:24:52.830Z,12.1172
2023-05-08T04:25:53.865Z,12.1222
2023-05-08T04:27:54.134Z,12.1128
2023-05-08T04:29:55.512Z,12.1121
2023-05-08T04:30:55.940Z,12.0992
2023-05-08T04:31:56.794Z,12.1022
2023-05-08T04:32:57.761Z,12.0655
2023-05-08T04:33:57.830Z,12.0472
2023-05-08T04:34:58.767Z,12.0672
2023-05-08T04:37:00.272Z,12.1125
2023-05-08T04:39:01.081Z,12.0951
2023-05-08T04:41:01.242Z,12.0806
2023-05-08T04:43:02.139Z,12.1222
2023-05-08T04:44:02.888Z,12.1426
2023-05-08T04:45:05.278Z,12.1406
2023-05-08T04:46:06.933Z,12.1571
2023-05-08T04:48:07.766Z,12.1702
2023-05-08T04:49:09.453Z,12.1622
2023-05-08T04:50:10.049Z,12.1610
2023-05-08T04:51:10.228Z,12.1429
2023-05-08T04:52:11.487Z,12.1063
2023-05-08T04:53:12.432Z,12.1412
2023-05-08T04:54:12.685Z,12.1637
2023-05-08T04:55:13.963Z,12.1636
2023-05-08T04:57:13.879Z,12.1338
2023-05-08T04:59:16.060Z,12.1328
2023-05-08T05:00:15.456Z,12.1482
2023-05-08T05:01:15.926Z,12.1351
2023-05-08T05:02:17.095Z,12.1332
2023-05-08T05:03:17.651Z,12.1413
2023-05-08T05:04:18.948Z,12.1428
2023-05-08T05:05:21.007Z,12.1248
2023-05-08T05:06:28.524Z,12.1248
2023-05-08T05:07:22.440Z,12.1333
2023-05-08T05:09:13.086Z,12.1300
2023-05-08T05:11:14.521Z,12.1439
2023-05-08T05:13:15.221Z,12.1305
2023-05-08T05:15:15.799Z,12.1471
2023-05-08T05:17:16.906Z,12.1342
2023-05-08T05:19:17.834Z,12.1604
2023-05-08T05:20:18.769Z,12.1316
2023-05-08T05:21:19.911Z,12.1224
2023-05-08T05:22:20.576Z,12.1398
2023-05-08T05:23:21.850Z,12.1611
2023-05-08T05:25:22.036Z,12.1714
2023-05-08T05:26:22.397Z,12.1831
2023-05-08T05:27:23.503Z,12.1906
2023-05-08T05:28:23.684Z,12.2016
2023-05-08T05:29:24.820Z,12.2053
2023-05-08T05:30:25.465Z,12.2138
2023-05-08T05:31:27.418Z,12.2243
2023-05-08T05:32:27.406Z,12.2034
2023-05-08T05:33:28.315Z,12.2175
2023-05-08T05:34:29.664Z,12.2199
2023-05-08T05:36:30.530Z,12.2356
2023-05-08T05:38:30.389Z,12.3055
2023-05-08T05:39:30.885Z,12.3145
2023-05-08T05:40:32.230Z,12.3158
2023-05-08T05:42:33.051Z,12.3311
2023-05-08T05:44:33.312Z,12.3727
2023-05-08T05:45:36.690Z,12.3864
2023-05-08T05:46:37.403Z,12.3754
2023-05-08T05:47:38.515Z,12.3576
2023-05-08T05:48:38.746Z,12.3581
2023-05-08T05:49:40.871Z,12.3739
2023-05-08T05:51:41.278Z,12.3929
2023-05-08T05:52:42.943Z,12.4267
2023-05-08T05:53:43.803Z,12.4466
2023-05-08T05:56:45.774Z,12.5113
2023-05-08T05:59:47.109Z,12.5844
2023-05-08T06:00:47.732Z,12.6032
2023-05-08T06:01:47.804Z,12.6040
2023-05-08T06:02:49.041Z,12.6092
2023-05-08T06:03:49.485Z,12.6101
2023-05-08T06:04:50.317Z,12.6119
2023-05-08T06:05:50.366Z,12.6209
2023-05-08T06:06:51.396Z,12.6290
2023-05-08T06:07:51.978Z,12.6618
2023-05-08T06:08:53.440Z,12.6516
2023-05-08T06:09:53.702Z,12.6415
2023-05-08T06:10:54.550Z,12.6546
2023-05-08T06:11:55.529Z,12.6137
2023-05-08T06:12:55.979Z,12.5418
2023-05-08T06:13:57.094Z,12.5748
2023-05-08T06:14:57.727Z,12.5703
2023-05-08T06:16:02.711Z,12.5944
2023-05-08T06:16:58.968Z,12.5738
2023-05-08T06:17:59.759Z,12.5818
2023-05-08T06:19:00.511Z,12.5741
2023-05-08T06:20:00.824Z,12.5777
2023-05-08T06:21:01.917Z,12.5851
2023-05-08T06:22:03.728Z,12.5903
2023-05-08T06:23:04.308Z,12.5655
2023-05-08T06:24:04.948Z,12.5720
2023-05-08T06:25:06.130Z,12.6066
2023-05-08T06:26:07.298Z,12.6463
2023-05-08T06:27:07.664Z,12.6770
2023-05-08T06:28:08.012Z,12.6858
2023-05-08T06:29:08.244Z,12.7190
2023-05-08T06:30:08.425Z,12.7439
2023-05-08T06:31:09.009Z,12.7162
2023-05-08T06:32:09.554Z,12.7090
2023-05-08T06:33:10.291Z,12.7302
2023-05-08T06:34:10.880Z,12.7460
2023-05-08T06:35:11.089Z,12.7544
2023-05-08T06:36:11.177Z,12.7451
2023-05-08T06:37:11.358Z,12.7495
2023-05-08T06:38:11.483Z,12.7647
2023-05-08T06:39:11.726Z,12.7717
2023-05-08T06:40:13.084Z,12.7767
2023-05-08T06:41:15.184Z,12.7628
2023-05-08T06:42:14.122Z,12.7490
2023-05-08T06:43:14.423Z,12.7517
2023-05-08T06:44:14.556Z,12.7445
2023-05-08T06:45:16.100Z,12.7109
2023-05-08T06:46:15.826Z,12.7149
2023-05-08T06:47:16.507Z,12.7090
2023-05-08T06:48:17.093Z,12.7053
2023-05-08T06:49:17.556Z,12.7203
2023-05-08T06:50:17.861Z,12.7352
2023-05-08T06:51:18.171Z,12.7449
2023-05-08T06:52:18.361Z,12.7490
2023-05-08T06:53:18.470Z,12.7644
2023-05-08T06:54:18.552Z,12.7764
2023-05-08T06:55:19.502Z,12.7578
2023-05-08T06:56:19.697Z,12.7408
2023-05-08T06:57:20.089Z,12.7385
2023-05-08T06:58:20.295Z,12.7227
2023-05-08T06:59:21.099Z,12.7268
2023-05-08T07:00:21.511Z,12.7496
2023-05-08T07:01:21.783Z,12.7211
2023-05-08T07:02:22.590Z,12.6640
2023-05-08T07:03:23.210Z,12.6607
2023-05-08T07:04:23.571Z,12.6619
2023-05-08T07:05:24.728Z,12.6780
2023-05-08T07:06:24.908Z,12.6910
2023-05-08T07:07:25.283Z,12.7168
2023-05-08T07:08:25.985Z,12.7345
2023-05-08T07:09:26.428Z,12.7804
2023-05-08T07:10:26.811Z,12.7967
2023-05-08T07:11:26.927Z,12.8090
2023-05-08T07:12:27.249Z,12.8286
2023-05-08T07:13:28.249Z,12.8758
2023-05-08T07:14:28.758Z,12.8939
2023-05-08T07:15:30.142Z,12.9116
2023-05-08T07:16:31.280Z,12.9538
2023-05-08T07:17:32.026Z,12.9819
2023-05-08T07:18:32.329Z,13.0188
2023-05-08T07:19:33.191Z,13.0329
2023-05-08T07:20:33.753Z,13.0518
2023-05-08T07:21:34.110Z,13.0255
2023-05-08T07:22:34.441Z,13.0836
2023-05-08T07:23:34.693Z,13.1457
2023-05-08T07:24:34.781Z,13.1727
2023-05-08T07:25:35.002Z,13.1984
2023-05-08T07:26:35.014Z,13.2456
2023-05-08T07:27:35.202Z,13.3174
2023-05-08T07:28:35.336Z,13.3332
2023-05-08T07:29:35.717Z,13.2904
2023-05-08T07:30:35.797Z,13.3343
2023-05-08T07:31:36.255Z,13.3481
2023-05-08T07:32:36.759Z,13.3569
2023-05-08T07:33:37.108Z,13.3928
2023-05-08T07:34:37.397Z,13.3688
2023-05-08T07:35:38.678Z,13.2608
2023-05-08T07:36:38.930Z,13.2924
2023-05-08T07:37:55.599Z,13.3099
2023-05-08T07:39:18.845Z,13.3356
2023-05-08T07:40:11.338Z,13.3757
2023-05-08T07:41:11.519Z,13.3368
2023-05-08T07:42:12.671Z,13.3775
2023-05-08T07:43:13.225Z,13.3693
2023-05-08T07:44:13.674Z,13.3998
2023-05-08T07:45:14.613Z,13.4265
2023-05-08T07:46:14.515Z,13.4596
2023-05-08T07:47:15.613Z,13.5246
2023-05-08T07:48:21.125Z,13.5274
2023-05-08T07:49:20.947Z,13.5265
2023-05-08T07:51:20.062Z,13.6153
2023-05-08T07:52:20.973Z,13.5408
2023-05-08T07:53:22.809Z,13.5206
2023-05-08T07:54:26.718Z,13.6621
2023-05-08T07:56:25.049Z,13.6354
2023-05-08T07:57:24.952Z,13.6971
2023-05-08T07:58:25.871Z,13.7066
2023-05-08T07:59:27.264Z,13.7438
2023-05-08T08:00:28.316Z,13.8199
2023-05-08T08:02:29.739Z,13.7969
2023-05-08T08:04:31.266Z,13.8104
2023-05-08T08:05:32.657Z,13.8065
2023-05-08T08:06:32.596Z,13.7581
2023-05-08T08:08:34.097Z,13.8345
2023-05-08T08:09:34.148Z,13.8268
2023-05-08T08:10:34.119Z,13.8780
2023-05-08T08:13:37.299Z,13.9604
2023-05-08T08:15:37.331Z,14.0263
2023-05-08T08:16:37.778Z,14.1217
2023-05-08T08:17:38.118Z,14.1956
2023-05-08T08:18:39.442Z,14.2106
2023-05-08T08:19:40.049Z,14.1283
2023-05-08T08:20:41.010Z,14.1394
2023-05-08T08:21:41.081Z,14.1571
2023-05-08T08:22:41.424Z,14.1590
2023-05-08T08:23:41.877Z,14.1652
2023-05-08T08:24:42.252Z,14.1847
2023-05-08T08:25:43.167Z,14.2303
2023-05-08T08:26:43.569Z,14.3053
2023-05-08T08:27:43.819Z,14.2563
2023-05-08T08:28:44.219Z,14.4092
2023-05-08T08:29:44.673Z,14.4002
2023-05-08T08:30:44.909Z,14.5012
2023-05-08T08:31:45.623Z,14.5132
2023-05-08T08:32:46.798Z,14.4960
2023-05-08T08:33:47.708Z,14.5269
2023-05-08T08:34:48.137Z,14.5178
2023-05-08T08:35:48.616Z,14.4879
2023-05-08T08:36:48.909Z,14.6191
2023-05-08T08:37:49.115Z,14.5892
2023-05-08T08:38:50.225Z,14.6050
2023-05-08T08:39:50.195Z,14.5864
2023-05-08T08:40:50.575Z,14.4191
2023-05-08T08:41:50.810Z,14.6438
2023-05-08T08:42:51.116Z,14.6629
2023-05-08T08:43:51.336Z,14.6036
2023-05-08T08:44:51.886Z,14.7342
2023-05-08T08:45:52.092Z,14.7967
2023-05-08T08:46:52.364Z,14.7421
2023-05-08T08:47:53.428Z,14.7175
2023-05-08T08:48:53.678Z,14.7560
2023-05-08T08:49:54.054Z,14.9302
2023-05-08T08:50:55.310Z,14.9778
2023-05-08T08:51:55.611Z,14.8387
2023-05-08T08:52:55.968Z,14.9311
2023-05-08T08:53:56.327Z,15.0291
2023-05-08T08:54:56.618Z,15.1321
2023-05-08T08:55:57.083Z,15.3169
2023-05-08T08:56:57.605Z,15.3193
2023-05-08T08:57:57.766Z,15.2724
2023-05-08T08:58:58.224Z,15.3725
2023-05-08T08:59:58.831Z,15.2925
2023-05-08T09:00:59.478Z,15.3337
2023-05-08T09:02:00.236Z,15.4714
2023-05-08T09:03:01.391Z,15.3541
2023-05-08T09:04:01.359Z,15.2932
2023-05-08T09:05:02.123Z,15.3661
2023-05-08T09:06:03.238Z,15.1365
2023-05-08T09:07:03.910Z,15.3028
2023-05-08T09:08:04.108Z,15.2565
2023-05-08T09:09:04.543Z,15.2471
2023-05-08T09:10:04.864Z,15.3134
2023-05-08T09:11:05.153Z,15.3518
2023-05-08T09:12:05.790Z,15.4214
2023-05-08T09:13:06.135Z,15.4069
2023-05-08T09:14:07.361Z,15.3519
2023-05-08T09:15:07.856Z,15.5164
2023-05-08T09:16:09.466Z,15.5020
2023-05-08T09:17:10.717Z,15.5625
2023-05-08T09:18:11.282Z,15.5306
2023-05-08T09:19:11.784Z,15.6682
2023-05-08T09:20:12.167Z,15.6647
2023-05-08T09:21:12.333Z,15.7025
2023-05-08T09:22:12.589Z,15.7485
2023-05-08T09:23:12.912Z,15.6833
2023-05-08T09:24:13.386Z,15.7428
2023-05-08T09:25:14.034Z,15.7466
2023-05-08T09:26:14.302Z,15.8764
2023-05-08T09:27:14.926Z,15.6458
2023-05-08T09:28:15.368Z,15.6185
2023-05-08T09:29:15.802Z,15.8336
2023-05-08T09:30:16.716Z,16.0695
2023-05-08T09:31:17.000Z,15.6950
2023-05-08T09:32:17.422Z,15.9350
2023-05-08T09:33:18.069Z,16.0541
2023-05-08T09:34:19.225Z,15.9717
2023-05-08T09:35:19.421Z,16.0089
2023-05-08T09:36:19.926Z,16.0636
2023-05-08T09:37:20.282Z,15.8414
2023-05-08T09:38:20.464Z,15.8371
2023-05-08T09:39:20.861Z,15.7903
2023-05-08T09:40:21.269Z,15.7527
2023-05-08T09:41:22.013Z,15.7695
2023-05-08T09:42:22.273Z,15.6617
2023-05-08T09:43:22.779Z,15.6775
2023-05-08T09:44:23.251Z,15.6356
2023-05-08T09:45:24.275Z,15.6433
2023-05-08T09:46:24.857Z,15.5851
2023-05-08T09:47:25.897Z,15.6048
2023-05-08T09:48:26.530Z,15.6722
2023-05-08T09:49:26.905Z,15.7694
2023-05-08T09:50:28.116Z,15.7956
2023-05-08T09:51:28.755Z,15.8597
2023-05-08T09:52:29.144Z,15.9419
2023-05-08T09:53:29.624Z,16.0025
2023-05-08T09:54:30.016Z,16.0009
2023-05-08T09:55:30.295Z,15.9615
2023-05-08T09:56:30.748Z,15.9711
2023-05-08T09:57:31.161Z,16.0116
2023-05-08T09:58:31.963Z,16.0765
2023-05-08T09:59:34.250Z,16.0971
2023-05-08T10:00:32.756Z,15.9407
2023-05-08T10:01:33.338Z,16.0205
2023-05-08T10:02:33.974Z,15.9848
2023-05-08T10:03:35.101Z,15.9045
2023-05-08T10:04:36.010Z,16.2554
2023-05-08T10:05:36.574Z,16.3380
2023-05-08T10:06:36.848Z,16.4895
2023-05-08T10:07:37.307Z,16.4344
2023-05-08T10:08:37.786Z,16.3913
2023-05-08T10:09:49.714Z,16.3580
2023-05-08T10:10:39.331Z,16.3891
2023-05-08T10:11:39.794Z,16.2732
2023-05-08T10:12:40.038Z,16.3437
2023-05-08T10:13:40.996Z,16.4020
2023-05-08T10:14:43.123Z,16.6087
2023-05-08T10:15:43.078Z,16.6061
2023-05-08T10:16:43.907Z,16.4991
2023-05-08T10:17:44.824Z,16.5806
2023-05-08T10:18:45.187Z,16.4734
2023-05-08T10:19:45.725Z,16.4809
2023-05-08T10:20:46.714Z,16.5382
2023-05-08T10:21:47.193Z,16.5841
2023-05-08T10:22:47.427Z,16.7095
2023-05-08T10:23:47.806Z,16.7776
2023-05-08T10:24:48.129Z,16.4784
2023-05-08T10:25:48.606Z,16.5127
2023-05-08T10:27:05.109Z,16.6471
2023-05-08T10:27:51.138Z,16.8270
2023-05-08T10:28:51.450Z,16.5359
2023-05-08T10:29:51.938Z,16.6597
2023-05-08T10:30:52.376Z,16.6073
2023-05-08T10:31:53.249Z,16.5274
2023-05-08T10:32:53.887Z,16.5801
2023-05-08T10:33:54.463Z,16.7530
2023-05-08T10:34:54.594Z,16.8087
2023-05-08T10:35:54.905Z,16.9793
2023-05-08T10:36:55.890Z,16.9004
2023-05-08T10:37:56.412Z,16.9051
2023-05-08T10:38:56.879Z,16.8691
2023-05-08T10:39:57.181Z,16.9588
2023-05-08T10:40:57.785Z,16.9094
2023-05-08T10:41:58.316Z,16.8705
2023-05-08T10:42:58.728Z,16.7562
2023-05-08T10:44:01.072Z,16.6012
2023-05-08T10:45:00.047Z,16.6974
2023-05-08T10:46:00.712Z,16.7171
2023-05-08T10:47:01.387Z,16.9962
2023-05-08T10:48:02.083Z,17.0422
2023-05-08T10:49:02.745Z,17.2637
2023-05-08T10:50:02.943Z,17.3288
2023-05-08T10:51:04.078Z,17.2478
2023-05-08T10:52:04.295Z,17.2934
2023-05-08T10:53:04.856Z,17.2307
2023-05-08T10:54:05.311Z,17.4315
2023-05-08T10:55:05.976Z,17.7689
2023-05-08T10:56:06.164Z,17.8754
2023-05-08T10:58:26.735Z,18.1578
2023-05-08T10:59:27.649Z,18.0847
2023-05-08T11:00:28.400Z,17.9974
2023-05-08T11:01:28.669Z,18.0007
2023-05-08T11:02:29.710Z,17.7547
2023-05-08T11:03:32.627Z,17.9523
2023-05-08T11:04:31.487Z,17.7246
2023-05-08T11:05:32.157Z,17.7662
2023-05-08T11:06:32.626Z,17.6965
2023-05-08T11:07:33.299Z,17.6183
2023-05-08T11:08:33.825Z,17.4058
2023-05-08T11:09:34.179Z,17.7386
2023-05-08T11:10:34.944Z,17.9644
2023-05-08T11:11:35.611Z,17.9599
2023-05-08T11:12:36.177Z,17.9365
2023-05-08T11:13:37.138Z,18.0064
2023-05-08T11:14:37.536Z,18.0225
2023-05-08T11:15:38.120Z,18.0849
2023-05-08T11:16:39.130Z,18.0646
2023-05-08T11:17:40.321Z,18.1095
2023-05-08T11:18:49.549Z,18.0722
2023-05-08T11:19:46.403Z,18.0202
2023-05-08T11:20:47.449Z,17.8376
2023-05-08T11:21:48.006Z,17.4992
2023-05-08T11:22:48.585Z,17.5250
2023-05-08T11:23:48.814Z,17.5054
2023-05-08T11:24:49.342Z,17.3114
2023-05-08T11:25:49.878Z,17.2138
2023-05-08T11:26:50.434Z,17.1222
2023-05-08T11:27:50.969Z,16.9867
2023-05-08T11:28:51.539Z,16.9264
2023-05-08T11:29:52.193Z,16.8278
2023-05-08T11:30:52.982Z,16.7442
2023-05-08T11:31:54.107Z,16.8289
2023-05-08T11:32:54.970Z,16.7962
2023-05-08T11:33:55.584Z,16.8926
2023-05-08T11:34:56.923Z,16.8796
2023-05-08T11:35:57.582Z,16.7874
2023-05-08T11:36:58.182Z,16.8683
2023-05-08T11:37:58.609Z,16.9503
2023-05-08T11:38:59.229Z,16.8784
2023-05-08T11:39:59.862Z,16.9691
2023-05-08T11:41:00.563Z,17.1300
2023-05-08T11:42:00.972Z,17.2431
2023-05-08T11:43:01.481Z,17.2872
2023-05-08T11:44:02.042Z,17.4340
2023-05-08T11:45:02.922Z,17.4699
2023-05-08T11:46:03.515Z,17.4936
2023-05-08T11:47:04.614Z,17.7809
2023-05-08T11:48:05.617Z,17.7423
2023-05-08T11:49:06.173Z,17.7744
2023-05-08T11:50:06.376Z,18.0469
2023-05-08T11:51:06.986Z,17.8493
2023-05-08T11:52:07.562Z,17.6294
2023-05-08T11:53:08.162Z,17.7611
2023-05-08T11:54:08.540Z,17.7290
2023-05-08T11:55:08.499Z,17.6900
2023-05-08T11:56:09.097Z,17.6600
2023-05-08T11:57:09.595Z,17.4378
2023-05-08T11:58:09.871Z,17.4864
2023-05-08T11:59:10.612Z,17.5217
2023-05-08T12:00:11.617Z,17.6240
2023-05-08T12:01:11.701Z,17.7970
2023-05-08T12:02:12.115Z,17.8205
2023-05-08T12:03:12.738Z,17.9922
2023-05-08T12:04:13.593Z,17.8775
2023-05-08T12:05:14.202Z,17.9428
2023-05-08T12:06:14.991Z,17.9073
2023-05-08T12:07:15.622Z,18.0805
2023-05-08T12:08:16.192Z,18.0898
2023-05-08T12:09:17.207Z,18.1612
2023-05-08T12:10:18.156Z,18.2132
2023-05-08T12:11:17.483Z,18.0041
2023-05-08T12:12:18.804Z,17.7933
2023-05-08T12:13:20.196Z,17.9234
2023-05-08T12:14:20.383Z,17.8659
2023-05-08T12:15:21.465Z,18.0347
2023-05-08T12:16:23.032Z,18.2544
2023-05-08T12:17:23.409Z,18.1320
2023-05-08T12:18:23.805Z,18.1857
2023-05-08T12:19:24.623Z,18.4475
2023-05-08T12:20:25.294Z,18.5295
2023-05-08T12:21:26.521Z,18.6013
2023-05-08T12:22:27.596Z,18.8430
2023-05-08T12:23:28.842Z,20.1417
2023-05-08T12:24:29.935Z,20.5194
2023-05-08T12:25:30.420Z,20.4799
2023-05-08T12:26:31.690Z,20.1523
2023-05-08T12:27:32.762Z,20.4279
2023-05-08T12:28:33.980Z,20.4374
2023-05-08T12:29:34.921Z,20.4189
2023-05-08T12:33:36.159Z,21.5309
2023-05-08T12:34:37.438Z,21.2005
2023-05-08T12:35:38.522Z,21.0774
2023-05-08T12:36:39.683Z,21.6335
2023-05-08T12:37:40.859Z,21.5866
2023-05-08T12:38:41.967Z,21.1955
2023-05-08T12:39:43.157Z,20.7927
2023-05-08T12:40:43.409Z,20.0708
2023-05-08T12:41:44.668Z,19.6865
2023-05-08T12:42:44.705Z,19.2063
2023-05-08T12:43:45.936Z,18.9108
2023-05-08T12:44:47.092Z,18.5197
2023-05-08T12:45:48.262Z,18.1799
2023-05-08T13:03:02.634Z,16.2442
2023-05-08T13:04:03.681Z,16.0599
2023-05-08T13:05:03.670Z,15.9307
2023-05-08T13:06:04.844Z,15.8445
2023-05-08T13:07:06.141Z,15.6949
2023-05-08T13:08:07.353Z,15.6118
2023-05-08T13:09:08.586Z,15.5522
2023-05-08T13:10:09.974Z,15.5139
2023-05-08T13:11:10.160Z,15.4518
2023-05-08T13:12:11.429Z,15.4172
2023-05-08T13:13:11.444Z,15.3830
2023-05-08T13:14:11.497Z,15.3175
2023-05-08T13:15:11.689Z,15.2991
2023-05-08T13:16:11.890Z,15.3084
2023-05-08T13:17:12.113Z,15.3085
2023-05-08T13:18:13.736Z,15.3003
2023-05-08T13:19:14.027Z,15.3158
2023-05-08T13:20:14.198Z,15.3059
2023-05-08T13:21:14.435Z,15.2960
2023-05-08T13:22:14.381Z,15.2944
2023-05-08T13:23:15.670Z,15.3066
2023-05-08T13:24:16.990Z,15.3555
2023-05-08T13:25:18.249Z,15.4200
2023-05-08T13:26:19.563Z,15.3767
2023-05-08T13:27:20.701Z,15.4400
2023-05-08T13:28:22.212Z,15.4544
2023-05-08T13:29:23.459Z,15.4557
2023-05-08T13:30:23.598Z,15.4234
2023-05-08T13:31:23.604Z,15.4624
2023-05-08T13:32:23.924Z,15.4902
2023-05-08T13:33:24.042Z,15.4947
2023-05-08T13:34:25.214Z,15.4795
2023-05-08T13:35:26.328Z,15.4731
2023-05-08T13:36:27.538Z,15.4599
2023-05-08T13:37:28.807Z,15.4183
2023-05-08T13:38:29.930Z,15.3825
2023-05-08T13:39:31.135Z,15.4136
2023-05-08T13:40:32.372Z,15.4899
2023-05-08T13:41:33.558Z,15.4475
2023-05-08T13:42:34.765Z,15.4887
2023-05-08T13:43:35.848Z,15.4650
2023-05-08T13:44:37.025Z,15.4397
2023-05-08T13:45:37.825Z,15.6184
2023-05-08T13:46:38.002Z,15.7042
2023-05-08T13:47:39.213Z,15.7181
2023-05-08T13:48:40.755Z,15.8185
2023-05-08T13:49:41.974Z,16.0857
2023-05-08T13:50:43.149Z,16.1786
2023-05-08T13:51:52.023Z,16.2331